Solomons, Maryland
Current Conditions -  °F | °C
As of 10:52 PM on Saturday 20 Dec 2014 (Local Time) from KNHK Reporting Station
Clear Clear  
Wind Chill: 27°   Ceiling: Unl
Heat Index: 27°   Visibility: 10mi
Dew Point: 21°   Wind: 3mph
Humidity: 78%   Direction: 250°WSW
Pressure: 30.3"   Gusts: NA
Location:  38.32°N, 76.46°W
Report Text: KNHK 210352Z AUTO 25003KT 10SM CLR M03/M06 A3030 RMK AO2 SLP262 T10281061
Loading
Personal Weather Stations






























Interactive Weather Map New forecast layout! Learn more

10-Day Weather Forecast

Advertisements
Track Severe Weather on mobile